createdAt,value
2018-02-22T00:05:51.613Z,66.70
2018-02-22T00:09:22.521Z,66.90
2018-02-22T00:12:07.282Z,67.10
2018-02-22T00:21:31.637Z,67.30
2018-02-22T00:24:35.514Z,67.20
2018-02-22T00:27:28.772Z,67.20
2018-02-22T00:46:02.394Z,67.70
2018-02-22T00:48:58.084Z,67.90
2018-02-22T00:51:52.753Z,67.90
2018-02-22T00:54:41.230Z,68.00
2018-02-22T00:57:28.095Z,67.80
2018-02-22T01:00:09.503Z,67.60
2018-02-22T01:02:48.866Z,67.50
2018-02-22T01:05:48.678Z,67.50
2018-02-22T01:08:55.838Z,67.60
2018-02-22T01:11:46.945Z,67.40
2018-02-22T01:17:41.538Z,67.00
2018-02-22T01:20:26.877Z,67.30
2018-02-22T01:23:11.950Z,66.80
2018-02-22T01:26:04.669Z,66.70
2018-02-22T01:31:31.239Z,66.80
2018-02-22T01:34:28.828Z,66.80
2018-02-22T01:37:27.439Z,66.70
2018-02-22T01:40:21.950Z,66.60
2018-02-22T01:43:01.158Z,66.50
2018-02-22T01:45:41.358Z,66.30
2018-02-22T01:48:31.560Z,66.20
2018-02-22T01:51:16.832Z,66.40
2018-02-22T01:54:14.411Z,66.20
2018-02-22T01:56:54.485Z,66.40
2018-02-22T01:59:35.058Z,66.40
2018-02-22T02:02:17.045Z,66.50
2018-02-22T02:05:13.071Z,66.40
2018-02-22T02:07:53.181Z,66.30
2018-02-22T02:11:02.311Z,66.30
2018-02-22T02:13:52.572Z,66.40
2018-02-22T02:16:34.225Z,66.60
2018-02-22T02:35:11.853Z,66.50
2018-02-22T02:37:56.050Z,66.80
2018-02-22T02:40:43.206Z,66.70
2018-02-22T02:43:24.356Z,66.80
2018-02-22T02:46:11.242Z,67.40
2018-02-22T02:49:33.915Z,66.90
2018-02-22T02:52:28.136Z,66.90
2018-02-22T02:55:11.260Z,66.60
2018-02-22T03:03:37.679Z,67.70
2018-02-22T03:06:16.886Z,66.80
2018-02-22T03:08:55.937Z,67.00
2018-02-22T03:11:37.029Z,67.00
2018-02-22T03:14:14.479Z,67.10
2018-02-22T03:20:01.479Z,67.40
2018-02-22T03:22:45.105Z,67.50
2018-02-22T03:25:27.774Z,67.50
2018-02-22T03:28:10.274Z,67.70
2018-02-22T03:33:59.977Z,68.00
2018-02-22T03:36:46.832Z,67.80
2018-02-22T03:39:26.911Z,68.20
2018-02-22T03:42:05.457Z,68.20
2018-02-22T03:45:13.147Z,68.20
2018-02-22T03:48:04.470Z,68.20
2018-02-22T03:50:50.103Z,68.30
2018-02-22T03:59:19.276Z,68.60
2018-02-22T04:08:21.069Z,68.90
2018-02-22T04:11:03.779Z,68.90
2018-02-22T04:13:46.911Z,69.10
2018-02-22T04:16:40.705Z,69.20
2018-02-22T04:19:23.469Z,69.20
2018-02-22T04:22:04.146Z,69.20
2018-02-22T04:24:52.446Z,69.40
2018-02-22T04:27:44.429Z,69.50
2018-02-22T04:30:32.365Z,69.40
2018-02-22T04:33:17.295Z,69.70
2018-02-22T04:36:06.807Z,69.70
2018-02-22T04:38:52.908Z,70.00
2018-02-22T04:41:47.040Z,69.80
2018-02-22T04:44:29.145Z,69.90
2018-02-22T05:03:16.506Z,86.10
2018-02-22T05:06:07.366Z,72.20
2018-02-22T05:08:53.982Z,72.20
2018-02-22T05:11:44.906Z,72.00
2018-02-22T05:14:38.365Z,72.00
2018-02-22T05:17:25.450Z,72.10
2018-02-22T05:20:24.445Z,72.30
2018-02-22T09:23:49.210Z,39.40
2018-02-22T09:27:17.939Z,40.10
2018-02-22T09:33:35.591Z,41.10
2018-02-22T09:57:35.904Z,42.60
2018-02-22T10:01:06.552Z,42.60
2018-02-22T10:12:15.540Z,46.00
2018-02-22T10:22:36.350Z,47.60
2018-02-22T10:25:55.311Z,47.80
2018-02-22T11:42:27.558Z,40.00
2018-02-22T11:52:48.028Z,37.80
2018-02-22T12:45:38.416Z,37.10
2018-02-22T13:14:39.671Z,38.20
2018-02-22T13:36:16.299Z,38.30
2018-02-22T21:19:09.720Z,59.00
2018-02-22T21:42:34.995Z,60.30
2018-02-22T22:42:32.836Z,64.10
2018-02-22T22:45:59.569Z,64.20
2018-02-22T22:49:07.675Z,64.50
2018-02-22T22:55:00.010Z,64.80
2018-02-22T23:00:57.528Z,64.70
2018-02-22T23:04:10.019Z,64.90
2018-02-22T23:06:56.198Z,65.10
2018-02-22T23:09:48.730Z,65.30
2018-02-22T23:15:46.170Z,65.20
2018-02-22T23:19:22.252Z,65.20
2018-02-22T23:25:41.049Z,65.70
2018-02-22T23:28:28.703Z,65.70
2018-02-22T23:45:04.847Z,65.90
2018-02-22T23:48:07.223Z,66.00
2018-02-22T23:50:54.367Z,66.10
2018-02-22T23:53:43.496Z,66.50
2018-02-22T23:56:50.697Z,66.70
2018-02-22T23:59:46.451Z,66.40
